Time;durP1;ratioP1;P1;durP2;ratioP2;P2;SDS_P1;SDS_P2;PMS_P1;PMS_P2;Temp;Humidity;BMP_temperature;BMP_pressure;BME280_temperature;BME280_humidity;BME280_pressure;Samples;Min_cycle;Max_cycle;Signal;HPM_P1;HPM_P2
2022/08/23 00:01:42;;;;;;;;;;;;;;;10.95;100.00;95471.59;5060621;28;19920;-76
2022/08/23 00:04:09;;;;;;;;;;;;;;;10.81;100.00;95472.19;5069994;28;19924;-77
2022/08/23 00:06:35;;;;;;;;;;;;;;;10.82;100.00;95463.25;5051481;28;19927;-77
2022/08/23 00:09:01;;;;;;;;;;;;;;;10.78;100.00;95464.84;5075049;28;19928;-77
2022/08/23 00:11:29;;;;;;;;;;;;;;;10.81;100.00;95456.41;5068871;28;20183;-77
2022/08/23 00:13:55;;;;;;;;;;;;;;;10.79;100.00;95463.81;5065797;28;19944;-77
2022/08/23 00:16:21;;;;;;;;;;;;;;;10.72;100.00;95458.03;5051540;28;19928;-77
2022/08/23 00:18:46;;;;;;;;;;;;;;;10.67;100.00;95465.94;5051286;28;19925;-77
2022/08/23 00:21:12;;;;;;;;;;;;;;;10.72;100.00;95460.69;5064866;28;19924;-77
2022/08/23 00:23:37;;;;;;;;;;;;;;;10.65;100.00;95462.81;5059723;28;19920;-77
2022/08/23 00:26:03;;;;;;;;;;;;;;;10.60;100.00;95460.19;5076800;28;19920;-77
2022/08/23 00:28:30;;;;;;;;;;;;;;;10.50;100.00;95450.50;5054974;28;20400;-77
2022/08/23 00:30:56;;;;;;;;;;;;;;;10.48;100.00;95466.56;5068783;28;19921;-77
2022/08/23 00:33:22;;;;;;;;;;;;;;;10.48;100.00;95458.66;5069359;28;20749;-77
2022/08/23 00:35:47;;;;;;;;;;;;;;;10.47;100.00;95456.31;5064053;28;19928;-77
2022/08/23 00:38:13;;;;;;;;;;;;;;;10.45;100.00;95459.19;5062972;28;19921;-76
2022/08/23 00:40:38;;;;;;;;;;;;;;;10.44;100.00;95457.63;5065147;28;19924;-76
2022/08/23 00:49:09;;;;;;;;;;;;;;;10.39;100.00;95455.03;5034573;28;19932;-76
2022/08/23 00:51:40;;;;;;;;;;;;;;;10.45;100.00;95456.56;5065715;28;19928;-76
2022/08/23 00:54:08;;;;;;;;;;;;;;;10.46;100.00;95445.00;5072402;28;19920;-77
2022/08/23 00:56:34;;;;;;;;;;;;;;;10.42;100.00;95446.59;5050049;28;19962;-76
2022/08/23 00:58:59;;;;;;;;;;;;;;;10.43;100.00;95444.75;5075981;28;19920;-76
2022/08/23 01:01:25;;;;;;;;;;;;;;;10.40;100.00;95446.06;5075146;28;20556;-76
2022/08/23 01:03:52;;;;;;;;;;;;;;;10.45;100.00;95451.31;5049424;28;19928;-76
2022/08/23 01:06:21;;;;;;;;;;;;;;;10.49;100.00;95447.09;5063341;28;19927;-76
2022/08/23 01:08:56;;;;;;;;;;;;;;;10.48;100.00;95453.41;5054178;28;20370;-76
2022/08/23 01:11:25;;;;;;;;;;;;;;;10.49;100.00;95448.94;5067142;28;19939;-76
2022/08/23 01:13:50;;;;;;;;;;;;;;;10.50;100.00;95450.50;5072950;28;19980;-76
2022/08/23 01:16:17;;;;;;;;;;;;;;;10.46;100.00;95450.25;5068201;28;19924;-76
2022/08/23 01:18:43;;;;;;;;;;;;;;;10.43;100.00;95450.81;5064548;28;20390;-76
2022/08/23 01:21:14;;;;;;;;;;;;;;;10.45;100.00;95443.41;5064523;28;19920;-76
2022/08/23 01:23:42;;;;;;;;;;;;;;;10.35;100.00;95446.09;5076965;28;19927;-77
2022/08/23 01:26:09;;;;;;;;;;;;;;;10.33;100.00;95448.97;5064825;28;19927;-77
2022/08/23 01:28:35;;;;;;;;;;;;;;;10.37;100.00;95451.88;5066139;28;19971;-76
2022/08/23 01:31:01;;;;;;;;;;;;;;;10.20;100.00;95458.22;5073514;28;19948;-77
2022/08/23 01:33:26;;;;;;;;;;;;;;;10.22;100.00;95466.59;5054932;28;19928;-77
2022/08/23 01:35:53;;;;;;;;;;;;;;;10.23;100.00;95462.94;5070478;28;19994;-77
2022/08/23 01:38:19;;;;;;;;;;;;;;;10.35;100.00;95461.88;5070227;28;19997;-77
2022/08/23 01:40:45;;;;;;;;;;;;;;;10.31;100.00;95463.44;5071906;28;19920;-76
2022/08/23 01:43:12;;;;;;;;;;;;;;;10.18;100.00;95462.94;5059524;28;19920;-77
2022/08/23 01:45:37;;;;;;;;;;;;;;;10.22;100.00;95469.25;5054646;28;19924;-77
2022/08/23 01:48:03;;;;;;;;;;;;;;;10.22;100.00;95465.84;5072039;28;19960;-77
2022/08/23 01:50:29;;;;;;;;;;;;;;;10.19;100.00;95469.78;5071767;28;20413;-76
2022/08/23 01:52:54;;;;;;;;;;;;;;;10.21;100.00;95470.31;5056968;28;19924;-77
2022/08/23 01:55:20;;;;;;;;;;;;;;;10.14;100.00;95469.00;5071735;28;19969;-76
2022/08/23 01:57:47;;;;;;;;;;;;;;;10.11;100.00;95475.56;5073650;28;19935;-76
2022/08/23 02:00:13;;;;;;;;;;;;;;;10.16;100.00;95477.44;5057563;28;19920;-77
2022/08/23 02:02:38;;;;;;;;;;;;;;;10.13;100.00;95478.75;5064223;28;19920;-76
2022/08/23 02:05:04;;;;;;;;;;;;;;;10.09;100.00;95480.31;5066782;28;19924;-76
2022/08/23 02:07:30;;;;;;;;;;;;;;;10.08;100.00;95484.00;5075205;28;20297;-77
2022/08/23 02:09:55;;;;;;;;;;;;;;;10.03;100.00;95486.66;5067955;28;20413;-76
2022/08/23 02:12:21;;;;;;;;;;;;;;;10.03;100.00;95484.03;5058260;28;19925;-77
2022/08/23 02:14:47;;;;;;;;;;;;;;;9.98;100.00;95486.66;5065690;28;19925;-77
2022/08/23 02:17:14;;;;;;;;;;;;;;;9.92;100.00;95482.47;5064314;28;19924;-76
2022/08/23 02:19:40;;;;;;;;;;;;;;;9.89;100.00;95483.78;5070917;28;19927;-76
2022/08/23 02:22:06;;;;;;;;;;;;;;;9.96;100.00;95479.03;5061830;28;19920;-77
2022/08/23 02:24:32;;;;;;;;;;;;;;;9.85;100.00;95483.50;5071383;28;20010;-76
2022/08/23 02:26:59;;;;;;;;;;;;;;;9.80;100.00;95488.78;5071366;28;19928;-76
2022/08/23 02:29:28;;;;;;;;;;;;;;;9.74;100.00;95487.22;5069271;28;20018;-76
2022/08/23 02:31:54;;;;;;;;;;;;;;;9.74;100.00;95487.22;5053107;28;19920;-76
2022/08/23 02:34:19;;;;;;;;;;;;;;;9.74;100.00;95495.09;5053385;28;19927;-76
2022/08/23 02:36:45;;;;;;;;;;;;;;;9.63;100.00;95490.91;5049316;28;20369;-76
2022/08/23 02:39:10;;;;;;;;;;;;;;;9.68;100.00;95496.94;5070449;28;19932;-76
2022/08/23 02:41:40;;;;;;;;;;;;;;;9.65;100.00;95501.91;5051767;28;20377;-75
2022/08/23 02:44:05;;;;;;;;;;;;;;;9.60;100.00;95501.94;5068557;28;19924;-76
2022/08/23 02:46:31;;;;;;;;;;;;;;;9.65;100.00;95507.19;5070969;28;19921;-76
2022/08/23 02:48:56;;;;;;;;;;;;;;;9.67;100.00;95502.47;5077907;28;19928;-76
2022/08/23 02:51:22;;;;;;;;;;;;;;;9.62;100.00;95497.19;5050596;28;19969;-76
2022/08/23 02:53:48;;;;;;;;;;;;;;;9.56;100.00;95501.66;5071586;28;19924;-77
2022/08/23 02:56:14;;;;;;;;;;;;;;;9.53;100.00;95497.72;5062577;28;20309;-77
2022/08/23 02:58:40;;;;;;;;;;;;;;;9.52;100.00;95504.03;5070861;28;20341;-77
2022/08/23 03:01:13;;;;;;;;;;;;;;;9.53;100.00;95508.22;5048566;28;19970;-77
2022/08/23 03:03:38;;;;;;;;;;;;;;;9.50;100.00;95510.59;5057937;28;19944;-77
2022/08/23 03:06:04;;;;;;;;;;;;;;;9.46;100.00;95515.56;5070769;28;20433;-77
2022/08/23 03:08:29;;;;;;;;;;;;;;;9.46;100.00;95512.94;5070089;28;20301;-77
2022/08/23 03:10:55;;;;;;;;;;;;;;;9.37;100.00;95517.16;5070644;28;19920;-76
2022/08/23 03:13:20;;;;;;;;;;;;;;;9.36;100.00;95513.72;5069171;28;19920;-77
2022/08/23 03:15:46;;;;;;;;;;;;;;;9.34;100.00;95520.31;5070634;28;20428;-77
2022/08/23 03:18:11;;;;;;;;;;;;;;;9.31;100.00;95526.06;5070464;28;19931;-77
2022/08/23 03:20:39;;;;;;;;;;;;;;;9.31;100.00;95520.81;5064824;28;20014;-76
2022/08/23 03:23:05;;;;;;;;;;;;;;;9.28;100.00;95516.06;5053089;28;19924;-77
2022/08/23 03:25:30;;;;;;;;;;;;;;;9.23;100.00;95523.97;5070676;28;19920;-77
2022/08/23 03:27:55;;;;;;;;;;;;;;;9.18;100.00;95522.13;5052455;28;19920;-77
2022/08/23 03:30:21;;;;;;;;;;;;;;;9.19;100.00;95529.72;5082240;28;19959;-76
2022/08/23 03:32:46;;;;;;;;;;;;;;;9.13;100.00;95525.50;5052590;28;20421;-76
2022/08/23 03:35:12;;;;;;;;;;;;;;;9.15;100.00;95531.28;5073754;28;20011;-76
2022/08/23 03:37:38;;;;;;;;;;;;;;;9.11;100.00;95534.72;5069874;28;19920;-76
2022/08/23 03:40:06;;;;;;;;;;;;;;;9.13;100.00;95536.00;5066394;28;20150;-76
2022/08/23 03:42:31;;;;;;;;;;;;;;;9.13;100.00;95535.22;5064684;28;19920;-76
2022/08/23 03:44:57;;;;;;;;;;;;;;;9.08;100.00;95533.38;5070135;28;20416;-76
2022/08/23 03:47:22;;;;;;;;;;;;;;;9.08;100.00;95543.06;5069996;28;19990;-76
2022/08/23 03:49:47;;;;;;;;;;;;;;;9.13;100.00;95546.50;5069187;28;20430;-76
2022/08/23 03:52:13;;;;;;;;;;;;;;;9.12;100.00;95547.56;5066805;28;19983;-76
2022/08/23 03:54:38;;;;;;;;;;;;;;;9.10;100.00;95544.41;5069290;28;20391;-76
2022/08/23 03:57:06;;;;;;;;;;;;;;;9.07;100.00;95547.53;5051794;28;19946;-76
2022/08/23 03:59:32;;;;;;;;;;;;;;;9.05;100.00;95549.66;5067152;28;19920;-76
2022/08/23 04:01:58;;;;;;;;;;;;;;;9.07;100.00;95555.41;5069685;28;20389;-76
2022/08/23 04:04:23;;;;;;;;;;;;;;;9.02;100.00;95555.38;5070190;28;19944;-76
2022/08/23 04:06:49;;;;;;;;;;;;;;;8.98;100.00;95555.13;5069154;28;19920;-76
2022/08/23 04:09:14;;;;;;;;;;;;;;;8.89;100.00;95550.63;5067523;28;20407;-75
2022/08/23 04:11:40;;;;;;;;;;;;;;;8.96;100.00;95556.44;5071404;28;19921;-76
2022/08/23 04:14:06;;;;;;;;;;;;;;;8.95;100.00;95555.66;5069928;28;19924;-76
2022/08/23 04:16:36;;;;;;;;;;;;;;;8.91;100.00;95556.44;5082637;28;19989;-76
2022/08/23 04:19:02;;;;;;;;;;;;;;;8.91;100.00;95554.59;5050514;28;20370;-76
2022/08/23 04:21:28;;;;;;;;;;;;;;;8.83;100.00;95563.75;5056825;28;20295;-76
2022/08/23 04:23:53;;;;;;;;;;;;;;;8.90;100.00;95557.47;5068862;28;19927;-77
2022/08/23 04:26:19;;;;;;;;;;;;;;;8.88;100.00;95570.84;5070750;28;19924;-77
2022/08/23 04:28:45;;;;;;;;;;;;;;;8.91;100.00;95570.34;5068470;28;20385;-77
2022/08/23 04:31:10;;;;;;;;;;;;;;;8.84;100.00;95570.56;5070783;28;19920;-78
2022/08/23 04:33:35;;;;;;;;;;;;;;;8.89;100.00;95571.63;5070271;28;20404;-77
2022/08/23 04:36:02;;;;;;;;;;;;;;;8.89;100.00;95576.88;5074127;28;19950;-76
2022/08/23 04:38:27;;;;;;;;;;;;;;;8.72;100.00;95575.25;5047286;28;19928;-76
2022/08/23 04:43:38;;;;;;;;;;;;;;;8.82;100.00;95588.41;5066405;28;19939;-78
2022/08/23 04:46:04;;;;;;;;;;;;;;;8.82;100.00;95583.16;5056978;28;19925;-76
2022/08/23 04:48:29;;;;;;;;;;;;;;;8.81;100.00;95584.19;5060728;28;20383;-77
2022/08/23 04:50:55;;;;;;;;;;;;;;;8.78;100.00;95587.34;5064800;28;20015;-77
2022/08/23 04:53:21;;;;;;;;;;;;;;;8.75;100.00;95587.84;5069957;28;19921;-78
2022/08/23 04:55:46;;;;;;;;;;;;;;;8.74;100.00;95591.50;5052039;28;19924;-77
2022/08/23 04:58:11;;;;;;;;;;;;;;;8.76;100.00;95586.78;5069912;28;20027;-78
2022/08/23 05:00:38;;;;;;;;;;;;;;;8.81;100.00;95586.81;5053746;28;19928;-78
2022/08/23 05:03:03;;;;;;;;;;;;;;;8.91;100.00;95586.06;5070074;28;19928;-76
2022/08/23 05:05:28;;;;;;;;;;;;;;;9.00;100.00;95589.00;5082842;28;19921;-77
2022/08/23 05:07:54;;;;;;;;;;;;;;;9.06;100.00;95593.22;5066784;28;19924;-77
2022/08/23 05:10:19;;;;;;;;;;;;;;;9.13;100.00;95599.00;5069342;28;20003;-76
2022/08/23 05:12:46;;;;;;;;;;;;;;;9.18;100.00;95596.41;5065712;28;19928;-77
2022/08/23 05:15:11;;;;;;;;;;;;;;;9.25;100.00;95600.63;5073673;28;19921;-77
2022/08/23 05:17:37;;;;;;;;;;;;;;;9.35;100.00;95600.66;5068713;28;19924;-76
2022/08/23 05:20:04;;;;;;;;;;;;;;;9.48;100.00;95605.44;5071227;28;19924;-77
2022/08/23 05:22:31;;;;;;;;;;;;;;;9.52;100.00;95611.75;5051892;28;20523;-77
2022/08/23 05:24:57;;;;;;;;;;;;;;;9.60;100.00;95622.78;5070647;28;20616;-77
2022/08/23 05:27:22;;;;;;;;;;;;;;;9.70;100.00;95622.81;5058640;28;19950;-77
2022/08/23 05:29:48;;;;;;;;;;;;;;;9.79;100.00;95615.97;5059559;28;19924;-77
2022/08/23 05:32:14;;;;;;;;;;;;;;;9.82;100.00;95622.56;5060913;28;20251;-77
2022/08/23 05:34:39;;;;;;;;;;;;;;;9.89;100.00;95623.88;5069871;28;19927;-77
2022/08/23 05:37:04;;;;;;;;;;;;;;;9.99;100.00;95622.31;5051560;28;19926;-77
2022/08/23 05:39:30;;;;;;;;;;;;;;;10.03;100.00;95621.53;5056861;28;20007;-78
2022/08/23 05:41:55;;;;;;;;;;;;;;;10.18;100.00;95623.34;5061494;28;20007;-78
2022/08/23 05:44:21;;;;;;;;;;;;;;;10.24;100.00;95632.03;5070162;28;20305;-77
2022/08/23 05:46:46;;;;;;;;;;;;;;;10.47;100.00;95625.47;5071165;28;19979;-75
2022/08/23 05:49:11;;;;;;;;;;;;;;;10.69;100.00;95630.44;5071041;28;19977;-76
2022/08/23 05:51:37;;;;;;;;;;;;;;;10.91;100.00;95640.66;5061678;28;19935;-76
2022/08/23 05:54:04;;;;;;;;;;;;;;;11.04;100.00;95638.50;5067781;28;20394;-75
2022/08/23 05:56:32;;;;;;;;;;;;;;;11.15;100.00;95645.31;5071947;28;19920;-77
2022/08/23 05:58:59;;;;;;;;;;;;;;;11.33;100.00;95645.78;5075531;28;19928;-77
2022/08/23 06:01:25;;;;;;;;;;;;;;;11.38;100.00;95637.84;5067005;28;19924;-76
2022/08/23 06:03:51;;;;;;;;;;;;;;;11.52;100.00;95644.13;5072303;28;20062;-77
2022/08/23 06:06:17;;;;;;;;;;;;;;;11.67;100.00;95639.81;5072979;28;20398;-75
2022/08/23 06:08:45;;;;;;;;;;;;;;;11.78;100.00;95642.13;5066718;28;19924;-75
2022/08/23 06:11:12;;;;;;;;;;;;;;;11.88;100.00;95645.72;5054476;28;20608;-75
2022/08/23 06:13:43;;;;;;;;;;;;;;;12.05;100.00;95645.38;5071433;28;20011;-77
2022/08/23 06:16:09;;;;;;;;;;;;;;;12.20;100.00;95647.16;5064058;28;19926;-76
2022/08/23 06:18:34;;;;;;;;;;;;;;;12.21;100.00;95644.22;5071633;28;20428;-76
2022/08/23 06:21:04;;;;;;;;;;;;;;;12.21;100.00;95644.22;5070751;28;19920;-76
2022/08/23 06:23:31;;;;;;;;;;;;;;;12.21;100.00;95646.88;5072032;28;19998;-76
2022/08/23 06:25:56;;;;;;;;;;;;;;;12.53;100.00;95650.00;5061668;28;19920;-76
2022/08/23 06:28:22;;;;;;;;;;;;;;;12.60;100.00;95646.00;5090529;28;20400;-76
2022/08/23 06:30:47;;;;;;;;;;;;;;;12.74;100.00;95645.34;5069227;28;19920;-76
2022/08/23 06:33:13;;;;;;;;;;;;;;;12.84;100.00;95645.22;5071248;28;19921;-76
2022/08/23 06:35:40;;;;;;;;;;;;;;;12.84;100.00;95645.22;5065739;28;19920;-76
2022/08/23 06:38:05;;;;;;;;;;;;;;;13.10;100.00;95647.59;5056499;28;19925;-76
2022/08/23 06:40:34;;;;;;;;;;;;;;;13.32;100.00;95645.22;5063496;28;19970;-75
2022/08/23 06:42:59;;;;;;;;;;;;;;;13.52;100.00;95644.22;5054072;28;19952;-76
2022/08/23 06:45:24;;;;;;;;;;;;;;;13.64;100.00;95641.16;5071071;28;19963;-76
2022/08/23 06:47:50;;;;;;;;;;;;;;;13.78;100.00;95640.47;5065872;28;20007;-78
2022/08/23 06:50:15;;;;;;;;;;;;;;;13.82;100.00;95636.16;5055770;28;20390;-78
2022/08/23 06:52:40;;;;;;;;;;;;;;;13.91;100.00;95642.38;5070895;28;19920;-77
2022/08/23 06:55:07;;;;;;;;;;;;;;;14.13;100.00;95641.00;5068949;28;20026;-77
2022/08/23 06:57:32;;;;;;;;;;;;;;;14.35;100.00;95641.19;5053744;28;19928;-75
2022/08/23 06:59:57;;;;;;;;;;;;;;;14.47;100.00;95645.22;5068122;28;20378;-76
2022/08/23 07:02:23;;;;;;;;;;;;;;;14.57;100.00;95639.75;5070690;28;19986;-76
2022/08/23 07:04:52;;;;;;;;;;;;;;;14.72;100.00;95649.31;5074335;28;19924;-75
2022/08/23 07:07:18;;;;;;;;;;;;;;;14.67;100.00;95652.06;5074568;28;19927;-76
2022/08/23 07:09:43;;;;;;;;;;;;;;;14.85;100.00;95645.13;5050977;28;19920;-76
2022/08/23 07:12:10;;;;;;;;;;;;;;;14.78;100.00;95650.00;5068952;28;19921;-76
2022/08/23 07:14:38;;;;;;;;;;;;;;;14.84;100.00;95648.84;5068747;28;19920;-77
2022/08/23 07:17:03;;;;;;;;;;;;;;;14.85;100.00;95643.25;5080905;28;19920;-76
2022/08/23 07:19:30;;;;;;;;;;;;;;;15.07;100.00;95650.53;5077977;28;19935;-76
2022/08/23 07:21:56;;;;;;;;;;;;;;;15.18;100.00;95645.03;5070080;28;19927;-76
2022/08/23 07:24:22;;;;;;;;;;;;;;;15.33;100.00;95650.03;5055093;28;19932;-78
2022/08/23 07:26:48;;;;;;;;;;;;;;;15.62;100.00;95646.28;5079854;28;19972;-77
2022/08/23 07:29:14;;;;;;;;;;;;;;;15.65;100.00;95661.59;5067467;28;19920;-77
2022/08/23 07:31:42;;;;;;;;;;;;;;;15.76;100.00;95655.00;5049338;28;19959;-76
2022/08/23 07:34:08;;;;;;;;;;;;;;;15.56;100.00;95652.78;5076525;28;20016;-78
2022/08/23 07:36:34;;;;;;;;;;;;;;;15.52;100.00;95652.56;5072031;28;19948;-78
2022/08/23 07:39:00;;;;;;;;;;;;;;;15.45;100.00;95654.84;5072017;28;19920;-77
2022/08/23 07:41:28;;;;;;;;;;;;;;;15.52;100.00;95651.78;5071822;28;19927;-77
2022/08/23 07:43:54;;;;;;;;;;;;;;;15.75;100.00;95656.06;5067524;28;20283;-76
2022/08/23 07:46:19;;;;;;;;;;;;;;;15.94;100.00;95663.13;5071718;28;19927;-77
2022/08/23 07:48:45;;;;;;;;;;;;;;;15.92;100.00;95660.00;5071279;28;19924;-75
2022/08/23 07:51:11;;;;;;;;;;;;;;;16.03;100.00;95661.34;5070165;28;19994;-75
2022/08/23 07:53:37;;;;;;;;;;;;;;;16.15;100.00;95665.31;5072614;28;20416;-75
2022/08/23 07:56:03;;;;;;;;;;;;;;;16.42;100.00;95662.56;5056990;28;19928;-75
2022/08/23 07:58:29;;;;;;;;;;;;;;;16.31;99.33;95665.75;5070264;28;19927;-77
2022/08/23 08:00:54;;;;;;;;;;;;;;;16.42;97.47;95667.06;5066943;28;20007;-76
2022/08/23 08:03:20;;;;;;;;;;;;;;;16.45;96.29;95671.78;5071809;28;20381;-79
2022/08/23 08:05:46;;;;;;;;;;;;;;;16.60;96.97;95667.97;5072832;28;19927;-77
2022/08/23 08:08:11;;;;;;;;;;;;;;;16.37;100.00;95669.84;5070784;28;19921;-77
2022/08/23 08:10:39;;;;;;;;;;;;;;;16.33;99.27;95669.66;5047839;28;19924;-77
2022/08/23 08:13:05;;;;;;;;;;;;;;;16.44;96.72;95670.22;5052012;28;20115;-77
2022/08/23 08:15:30;;;;;;;;;;;;;;;16.42;96.56;95677.69;5068216;28;19967;-76
2022/08/23 08:17:56;;;;;;;;;;;;;;;16.38;96.34;95677.53;5072626;28;20484;-77
2022/08/23 08:20:21;;;;;;;;;;;;;;;16.40;96.25;95685.97;5063954;28;20248;-76
2022/08/23 08:22:47;;;;;;;;;;;;;;;16.40;95.91;95680.66;5062685;28;20336;-76
2022/08/23 08:25:13;;;;;;;;;;;;;;;16.33;96.48;95679.50;5069584;28;19943;-79
2022/08/23 08:27:39;;;;;;;;;;;;;;;16.55;93.25;95686.69;5079556;28;20038;-79
2022/08/23 08:30:05;;;;;;;;;;;;;;;16.59;95.57;95687.66;5057597;28;19924;-77
2022/08/23 08:32:31;;;;;;;;;;;;;;;16.83;89.78;95687.31;5082811;28;19920;-77
2022/08/23 08:34:56;;;;;;;;;;;;;;;16.73;91.50;95688.34;5052458;28;20332;-77
2022/08/23 08:37:21;;;;;;;;;;;;;;;16.61;90.86;95686.25;5069868;28;19967;-77
2022/08/23 08:39:47;;;;;;;;;;;;;;;16.52;95.02;95687.28;5061108;28;19924;-78
2022/08/23 08:42:18;;;;;;;;;;;;;;;16.54;92.39;95685.91;5062411;28;19927;-76
2022/08/23 08:44:52;;;;;;;;;;;;;;;16.66;92.72;95682.69;5067180;28;19920;-77
2022/08/23 08:47:21;;;;;;;;;;;;;;;16.79;87.15;95689.00;5071526;28;19944;-78
2022/08/23 08:50:15;;;;;;;;;;;;;;;16.76;89.29;95682.44;5073536;28;20275;-78
2022/08/23 08:52:43;;;;;;;;;;;;;;;16.88;91.10;95689.88;5041233;28;19924;-77
2022/08/23 08:55:11;;;;;;;;;;;;;;;17.39;84.98;95693.06;5074190;28;19939;-76
2022/08/23 08:57:37;;;;;;;;;;;;;;;17.51;84.50;95689.03;5065808;28;19920;-76
2022/08/23 09:00:11;;;;;;;;;;;;;;;17.65;81.28;95687.03;5060972;28;19920;-78
2022/08/23 09:02:37;;;;;;;;;;;;;;;17.63;81.06;95687.34;5067539;28;19924;-77
2022/08/23 09:05:04;;;;;;;;;;;;;;;17.65;80.26;95684.38;5073256;28;19938;-77
2022/08/23 09:07:43;;;;;;;;;;;;;;;17.66;80.81;95688.59;5046755;28;19920;-78
2022/08/23 09:10:16;;;;;;;;;;;;;;;17.66;83.46;95685.94;5057670;28;20397;-76
2022/08/23 09:13:02;;;;;;;;;;;;;;;17.60;85.66;95692.50;5065399;28;20407;-77
2022/08/23 09:15:33;;;;;;;;;;;;;;;17.68;83.20;95683.75;5055559;28;20042;-78
2022/08/23 09:18:06;;;;;;;;;;;;;;;17.79;82.08;95693.00;5059561;28;19931;-77
2022/08/23 09:20:32;;;;;;;;;;;;;;;17.97;79.67;95685.06;5069901;28;19943;-76
2022/08/23 09:23:09;;;;;;;;;;;;;;;18.31;76.81;95684.28;5061824;28;19963;-78
2022/08/23 09:25:35;;;;;;;;;;;;;;;18.39;74.95;95674.72;5071717;28;19931;-78
2022/08/23 09:28:01;;;;;;;;;;;;;;;18.59;77.64;95680.50;5068923;28;19936;-77
2022/08/23 09:30:45;;;;;;;;;;;;;;;18.48;75.02;95672.81;5065289;28;19954;-78
2022/08/23 09:33:19;;;;;;;;;;;;;;;18.33;80.01;95681.28;5063621;28;20432;-77
2022/08/23 09:36:00;;;;;;;;;;;;;;;18.36;77.52;95672.69;5068961;28;19920;-77
2022/08/23 09:38:28;;;;;;;;;;;;;;;18.42;74.51;95673.28;5065315;28;19920;-77
2022/08/23 09:40:54;;;;;;;;;;;;;;;18.63;74.12;95671.56;5068363;28;19928;-77
2022/08/23 09:43:22;;;;;;;;;;;;;;;18.74;74.32;95674.66;5070227;28;19943;-76
2022/08/23 09:45:47;;;;;;;;;;;;;;;18.90;72.87;95676.84;5068225;28;19924;-77
2022/08/23 09:48:14;;;;;;;;;;;;;;;19.05;73.76;95676.34;5060669;28;20485;-77
2022/08/23 09:50:48;;;;;;;;;;;;;;;19.21;72.02;95677.38;5071214;28;19920;-77
2022/08/23 09:53:22;;;;;;;;;;;;;;;19.59;67.67;95672.31;5072593;28;19928;-77
2022/08/23 09:55:50;;;;;;;;;;;;;;;20.00;64.18;95668.16;5068179;28;19939;-77
2022/08/23 09:58:34;;;;;;;;;;;;;;;19.84;65.50;95673.28;5073043;28;19924;-77
2022/08/23 10:06:55;;;;;;;8.77;4.30;;;;;;;21.40;61.46;95667.53;5112555;27;20383;-75
2022/08/23 10:09:30;;;;;;;7.95;4.38;;;;;;;21.13;59.07;95666.28;5109944;27;20050;-75
2022/08/23 10:11:56;;;;;;;;;;;;;;;21.21;58.96;95660.06;5099716;28;20040;-73
2022/08/23 10:14:24;;;;;;;7.43;4.57;;;;;;;21.48;60.24;95663.19;5107709;28;19976;-73
2022/08/23 10:17:07;;;;;;;8.60;4.47;;;;;;;21.54;55.54;95667.22;5112600;28;20048;-72
2022/08/23 10:19:55;;;;;;;15.13;4.03;;;;;;;22.20;55.24;95659.94;5110585;27;20036;-72
2022/08/23 10:22:25;;;;;;;7.55;4.07;;;;;;;22.54;52.83;95663.19;5106372;28;20136;-73
2022/08/23 10:24:59;;;;;;;8.68;4.43;;;;;;;23.00;52.75;95657.44;5104969;28;20071;-73
2022/08/23 10:30:56;;;;;;;8.23;4.40;;;;;;;23.59;50.20;95650.41;5108125;28;20035;-72
2022/08/23 10:33:38;;;;;;;9.50;4.18;;;;;;;24.05;48.50;95652.56;5110232;28;20063;-72
2022/08/23 10:36:27;;;;;;;8.18;4.28;;;;;;;23.28;46.42;95657.38;5096730;28;20040;-72
2022/08/23 10:39:05;;;;;;;14.00;4.95;;;;;;;22.93;46.41;95652.69;5109552;28;20062;-72
2022/08/23 10:41:47;;;;;;;9.02;4.63;;;;;;;23.70;44.85;95656.81;5097775;28;20054;-73
2022/08/23 10:44:26;;;;;;;9.82;4.78;;;;;;;24.66;48.76;95659.13;5114568;28;20040;-73
2022/08/23 10:47:09;;;;;;;6.45;4.40;;;;;;;24.90;42.78;95654.56;5112036;28;20120;-73
2022/08/23 10:49:38;;;;;;;7.40;4.10;;;;;;;25.27;43.33;95645.94;5102321;28;20043;-73
2022/08/23 10:52:06;;;;;;;8.75;4.63;;;;;;;25.10;39.15;95638.31;5104281;28;20042;-73
2022/08/23 10:54:59;;;;;;;5.40;4.20;;;;;;;25.60;40.85;95647.19;5110544;28;20656;-73
2022/08/23 10:57:34;;;;;;;8.80;3.70;;;;;;;25.29;36.53;95646.34;5102803;28;20493;-73
2022/08/23 11:00:04;;;;;;;7.75;4.40;;;;;;;25.46;37.80;95646.97;5104301;28;20054;-73
2022/08/23 11:02:58;;;;;;;9.70;5.25;;;;;;;25.23;41.26;95645.09;5103728;28;20443;-73
2022/08/23 11:05:26;;;;;;;;;;;;;;;26.00;42.36;95647.72;5106704;28;20107;-72
2022/08/23 11:08:03;;;;;;;8.48;5.25;;;;;;;26.79;38.48;95644.03;5099893;28;19920;-73
2022/08/23 11:10:41;;;;;;;9.23;5.47;;;;;;;27.04;37.10;95637.28;5105998;28;20044;-73
2022/08/23 11:13:09;;;;;;;6.68;5.15;;;;;;;26.77;38.23;95646.31;5101549;28;20077;-73
2022/08/23 11:15:44;;;;;;;12.32;5.60;;;;;;;26.62;38.40;95639.19;5104718;28;20044;-73
2022/08/23 11:18:32;;;;;;;21.58;5.40;;;;;;;26.95;37.59;95634.91;5086443;28;20040;-73
2022/08/23 11:21:03;;;;;;;15.63;5.47;;;;;;;27.09;35.98;95632.31;5081685;28;20046;-74
2022/08/23 11:23:49;;;;;;;9.55;5.20;;;;;;;27.12;36.51;95639.69;5094221;28;20712;-74
2022/08/23 11:26:26;;;;;;;9.32;5.00;;;;;;;27.34;35.47;95639.06;5097611;28;20036;-74
2022/08/23 11:28:55;;;;;;;7.45;5.05;;;;;;;27.72;35.86;95632.41;5089716;28;20050;-73
2022/08/23 11:31:26;;;;;;;10.98;5.18;;;;;;;27.26;36.41;95638.25;5092613;28;20032;-74
2022/08/23 11:34:02;;;;;;;12.25;5.35;;;;;;;28.18;34.53;95636.50;5092930;28;20062;-74
2022/08/23 11:36:29;;;;;;;6.72;4.75;;;;;;;28.14;35.28;95631.09;5087849;28;20048;-74
2022/08/23 11:38:54;;;;;;;7.70;4.78;;;;;;;27.90;34.22;95631.69;5102287;28;20046;-74
2022/08/23 11:41:29;;;;;;;7.25;4.75;;;;;;;28.58;33.18;95633.91;5092309;28;20036;-74
2022/08/23 11:43:54;;;;;;;9.00;4.47;;;;;;;28.67;32.28;95628.94;5089151;28;20040;-74
2022/08/23 11:46:26;;;;;;;8.77;4.85;;;;;;;28.51;31.66;95638.13;5092845;28;20113;-75
2022/08/23 11:49:22;;;;;;;9.32;4.30;;;;;;;27.51;31.77;95638.44;5093923;28;20051;-73
2022/08/23 11:51:54;;;;;;;9.52;4.35;;;;;;;28.10;31.79;95634.91;5097589;28;20044;-73
2022/08/23 11:54:40;;;;;;;8.85;5.05;;;;;;;27.66;31.00;95633.91;5093038;28;20425;-74
2022/08/23 11:57:23;;;;;;;8.38;4.93;;;;;;;28.10;32.66;95638.41;5089739;28;20036;-74
2022/08/23 12:00:17;;;;;;;10.77;4.32;;;;;;;29.29;33.34;95643.31;5088417;28;20047;-74
2022/08/23 12:03:00;;;;;;;12.43;4.60;;;;;;;29.02;31.45;95638.25;5089504;28;20138;-74
2022/08/23 12:05:49;;;;;;;10.90;5.43;;;;;;;28.42;31.58;95629.63;5088318;28;20048;-74
2022/08/23 12:08:29;;;;;;;11.57;4.80;;;;;;;29.14;31.10;95629.75;5077238;28;20044;-74
2022/08/23 12:10:55;;;;;;;9.63;3.88;;;;;;;29.53;29.22;95626.25;5098493;28;20086;-74
2022/08/23 12:13:42;;;;;;;8.55;4.20;;;;;;;30.40;28.98;95623.25;5084883;28;20047;-73
2022/08/23 12:16:27;;;;;;;6.50;3.70;;;;;;;29.79;28.84;95624.25;5085761;28;20048;-73
2022/08/23 12:18:56;;;;;;;5.65;3.90;;;;;;;29.65;30.45;95621.56;5088117;28;20046;-73
2022/08/23 12:21:50;;;;;;;8.48;4.10;;;;;;;28.59;30.26;95628.13;5088311;28;20032;-73
2022/08/23 12:24:41;;;;;;;6.57;4.00;;;;;;;29.91;32.32;95625.00;5085740;28;20032;-73
2022/08/23 12:27:34;;;;;;;9.50;4.45;;;;;;;29.66;28.59;95631.25;5087514;28;20040;-73
2022/08/23 12:30:09;;;;;;;7.70;3.75;;;;;;;30.32;28.85;95619.78;5081871;28;20518;-74
2022/08/23 12:33:05;;;;;;;8.38;3.92;;;;;;;30.89;27.72;95621.41;5078669;28;20036;-74
2022/08/23 12:35:38;;;;;;;6.03;3.70;;;;;;;30.34;27.21;95619.41;5084186;28;20039;-74
2022/08/23 12:38:13;;;;;;;;;;;;;;;29.80;30.13;95620.38;5087374;28;20062;-74
2022/08/23 12:40:43;;;;;;;7.00;3.90;;;;;;;30.28;28.65;95621.00;5087253;28;19921;-74
2022/08/23 12:43:14;;;;;;;6.75;3.47;;;;;;;30.95;27.85;95623.69;5085204;28;20126;-74
2022/08/23 12:45:43;;;;;;;7.50;3.50;;;;;;;30.79;26.99;95616.84;5089317;28;20059;-74
2022/08/23 12:48:13;;;;;;;5.82;3.60;;;;;;;30.13;29.09;95621.06;5094767;28;20036;-74
2022/08/23 12:50:44;;;;;;;13.07;3.45;;;;;;;31.60;26.68;95622.00;5091431;28;20713;-74
2022/08/23 12:53:16;;;;;;;5.80;3.30;;;;;;;31.10;26.77;95625.16;5090499;28;20028;-74
2022/08/23 12:55:58;;;;;;;6.78;3.60;;;;;;;31.56;26.70;95623.97;5095302;28;20044;-74